Time,TemperatureF,DewpointF,PressureIn,WindDirection,WindDirectionDegrees,WindSpeedMPH,WindSpeedGustMPH,Humidity,HourlyPrecipIn,Conditions,Clouds,dailyrainin,SoftwareType,DateUTC
2013-04-23 08:32:00,22.0,14.0,-100.00,North,-999,-999.0,-999.0,69,-99.99,,,-99.99,,2013-04-23 14:32:00,
2013-04-23 08:42:00,23.0,13.0,-100.00,WNW,300,2.0,-999.0,64,-99.99,,,-99.99,,2013-04-23 14:42:00,
2013-04-23 08:52:00,24.0,8.0,-100.00,WSW,255,1.0,4.0,51,-99.99,,,-99.99,,2013-04-23 14:52:00,
2013-04-23 09:01:00,25.0,9.0,-100.00,West,275,1.0,4.0,49,-99.99,,,-99.99,,2013-04-23 15:01:00,
2013-04-23 09:11:00,28.0,8.0,-100.00,West,270,0.0,3.0,42,-99.99,,,-99.99,,2013-04-23 15:11:00,
2013-04-23 09:21:00,28.0,6.0,-100.00,West,260,1.0,2.0,38,-99.99,,,-99.99,,2013-04-23 15:21:00,
2013-04-23 09:32:00,26.0,4.0,-100.00,SW,230,2.0,4.0,38,-99.99,,,-99.99,,2013-04-23 15:32:00,
2013-04-23 09:42:00,22.0,4.0,-100.00,SSW,210,3.0,6.0,44,-99.99,,,-99.99,,2013-04-23 15:42:00,
2013-04-23 09:52:00,24.0,5.0,-100.00,WSW,245,2.0,4.0,42,-99.99,,,-99.99,,2013-04-23 15:52:00,
2013-04-23 10:02:00,26.0,5.0,-100.00,SSW,200,0.0,3.0,40,-99.99,,,-99.99,,2013-04-23 16:02:00,
2013-04-23 10:12:00,24.0,4.0,-100.00,SW,230,4.0,6.0,41,-99.99,,,-99.99,,2013-04-23 16:12:00,
2013-04-23 10:23:00,23.0,4.0,-100.00,West,265,5.0,7.0,43,-99.99,,,-99.99,,2013-04-23 16:23:00,
2013-04-23 10:33:00,23.0,4.0,-100.00,West,265,6.0,8.0,43,-99.99,,,-99.99,,2013-04-23 16:33:00,
2013-04-23 10:42:00,22.0,4.0,-100.00,West,260,6.0,9.0,44,-99.99,,,-99.99,,2013-04-23 16:42:00,
2013-04-23 10:52:00,22.0,3.0,-100.00,WSW,250,4.0,9.0,43,-99.99,,,-99.99,,2013-04-23 16:52:00,
2013-04-23 11:02:00,23.0,4.0,-100.00,SW,235,4.0,9.0,44,-99.99,,,-99.99,,2013-04-23 17:02:00,
2013-04-23 11:11:00,22.0,4.0,-100.00,South,175,5.0,8.0,44,-99.99,,,-99.99,,2013-04-23 17:11:00,
2013-04-23 11:22:00,22.0,4.0,-100.00,South,190,6.0,10.0,45,-99.99,,,-99.99,,2013-04-23 17:22:00,
2013-04-23 11:32:00,23.0,5.0,-100.00,South,190,6.0,11.0,46,-99.99,,,-99.99,,2013-04-23 17:32:00,
2013-04-23 11:42:00,24.0,5.0,-100.00,South,190,4.0,11.0,43,-99.99,,,-99.99,,2013-04-23 17:42:00,
2013-04-23 11:53:00,25.0,6.0,-100.00,SW,230,7.0,12.0,44,-99.99,,,-99.99,,2013-04-23 17:53:00,
2013-04-23 12:01:00,26.0,8.0,-100.00,West,275,6.0,11.0,44,-99.99,,,-99.99,,2013-04-23 18:01:00,
2013-04-23 12:12:00,26.0,6.0,-100.00,SW,225,9.0,12.0,43,-99.99,,,-99.99,,2013-04-23 18:12:00,
2013-04-23 12:22:00,28.0,6.0,-100.00,West,275,7.0,11.0,39,-99.99,,,-99.99,,2013-04-23 18:22:00,
2013-04-23 12:31:00,28.0,6.0,-100.00,West,270,5.0,11.0,37,-99.99,,,-99.99,,2013-04-23 18:31:00,
2013-04-23 12:42:00,29.0,6.0,-100.00,WSW,245,9.0,12.0,37,-99.99,,,-99.99,,2013-04-23 18:42:00,
2013-04-23 12:52:00,30.0,6.0,-100.00,West,270,9.0,13.0,34,-99.99,,,-99.99,,2013-04-23 18:52:00,
2013-04-23 13:02:00,30.0,3.0,-100.00,West,280,6.0,12.0,30,-99.99,,,-99.99,,2013-04-23 19:02:00,
2013-04-23 13:11:00,29.0,2.0,-100.00,SW,235,8.0,14.0,30,-99.99,,,-99.99,,2013-04-23 19:11:00,
2013-04-23 13:21:00,32.0,4.0,-100.00,WSW,255,2.0,16.0,30,-99.99,,,-99.99,,2013-04-23 19:21:00,
2013-04-23 13:32:00,31.0,3.0,-100.00,North,0,1.0,11.0,29,-99.99,,,-99.99,,2013-04-23 19:32:00,
2013-04-23 13:41:00,32.0,3.0,-100.00,West,275,7.0,12.0,28,-99.99,,,-99.99,,2013-04-23 19:41:00,
2013-04-23 13:51:00,32.0,4.0,-100.00,West,265,9.0,14.0,29,-99.99,,,-99.99,,2013-04-23 19:51:00,
2013-04-23 14:01:00,33.0,4.0,-100.00,WSW,255,6.0,12.0,29,-99.99,,,-99.99,,2013-04-23 20:01:00,
2013-04-23 14:11:00,32.0,5.0,-100.00,WSW,245,6.0,14.0,31,-99.99,,,-99.99,,2013-04-23 20:11:00,
2013-04-23 14:21:00,33.0,4.0,-100.00,WSW,245,7.0,12.0,29,-99.99,,,-99.99,,2013-04-23 20:21:00,
2013-04-23 14:31:00,34.0,5.0,-100.00,WNW,295,3.0,7.0,28,-99.99,,,-99.99,,2013-04-23 20:31:00,
2013-04-23 14:41:00,36.0,5.0,-100.00,WNW,285,2.0,13.0,25,-99.99,,,-99.99,,2013-04-23 20:41:00,
2013-04-23 14:51:00,37.0,3.0,-100.00,WSW,240,4.0,11.0,23,-99.99,,,-99.99,,2013-04-23 20:51:00,
2013-04-23 15:01:00,35.0,4.0,-100.00,SSW,200,4.0,13.0,25,-99.99,,,-99.99,,2013-04-23 21:01:00,
2013-04-23 15:11:00,36.0,5.0,-100.00,WNW,285,4.0,13.0,26,-99.99,,,-99.99,,2013-04-23 21:11:00,
2013-04-23 15:21:00,36.0,2.0,-100.00,NW,320,7.0,16.0,22,-99.99,,,-99.99,,2013-04-23 21:21:00,
2013-04-23 15:32:00,38.0,2.0,-100.00,SW,230,2.0,8.0,21,-99.99,,,-99.99,,2013-04-23 21:32:00,
2013-04-23 15:43:00,37.0,-1.0,-100.00,WNW,290,2.0,12.0,19,-99.99,,,-99.99,,2013-04-23 21:43:00,
2013-04-23 15:52:00,36.0,-2.0,-100.00,NNE,20,4.0,11.0,19,-99.99,,,-99.99,,2013-04-23 21:52:00,
2013-04-23 16:02:00,39.0,-1.0,-100.00,West,270,11.0,16.0,18,-99.99,,,-99.99,,2013-04-23 22:02:00,
2013-04-23 16:12:00,39.0,-1.0,-100.00,NNW,330,9.0,16.0,17,-99.99,,,-99.99,,2013-04-23 22:12:00,
2013-04-23 16:22:00,36.0,-4.0,-100.00,NNW,345,7.0,12.0,17,-99.99,,,-99.99,,2013-04-23 22:22:00,
2013-04-23 16:32:00,36.0,-4.0,-100.00,NNW,335,3.0,12.0,17,-99.99,,,-99.99,,2013-04-23 22:32:00,
2013-04-23 16:42:00,38.0,-3.0,-100.00,NW,320,6.0,11.0,17,-99.99,,,-99.99,,2013-04-23 22:42:00,
2013-04-23 16:52:00,39.0,-2.0,-100.00,West,275,7.0,11.0,17,-99.99,,,-99.99,,2013-04-23 22:52:00,
2013-04-23 17:02:00,40.0,-1.0,-100.00,NW,305,6.0,10.0,17,-99.99,,,-99.99,,2013-04-23 23:02:00,
2013-04-23 17:12:00,40.0,-1.0,-100.00,WNW,290,2.0,10.0,16,-99.99,,,-99.99,,2013-04-23 23:12:00,
2013-04-23 17:21:00,36.0,-2.0,-100.00,NNE,25,7.0,12.0,18,-99.99,,,-99.99,,2013-04-23 23:21:00,
2013-04-23 17:31:00,37.0,-1.0,-100.00,North,5,4.0,12.0,19,-99.99,,,-99.99,,2013-04-23 23:31:00,
2013-04-23 17:41:00,39.0,0.0,-100.00,West,275,7.0,14.0,18,-99.99,,,-99.99,,2013-04-23 23:41:00,
2013-04-23 17:52:00,38.0,-1.0,-100.00,WSW,245,7.0,12.0,18,-99.99,,,-99.99,,2013-04-23 23:52:00,
2013-04-23 18:01:00,37.0,-1.0,-100.00,NW,310,9.0,12.0,18,-99.99,,,-99.99,,2013-04-24 00:01:00,
2013-04-23 18:21:00,37.0,-2.0,-100.00,NNW,345,6.0,8.0,18,-99.99,,,-99.99,,2013-04-24 00:21:00,
2013-04-23 18:32:00,38.0,-2.0,-100.00,NE,40,1.0,7.0,18,-99.99,,,-99.99,,2013-04-24 00:32:00,
2013-04-23 18:41:00,36.0,-2.0,-100.00,WNW,300,1.0,7.0,18,-99.99,,,-99.99,,2013-04-24 00:41:00,
2013-04-23 18:51:00,36.0,-3.0,-100.00,SW,225,2.0,3.0,18,-99.99,,,-99.99,,2013-04-24 00:51:00,
2013-04-23 19:01:00,36.0,-1.0,-100.00,NW,310,6.0,8.0,19,-99.99,,,-99.99,,2013-04-24 01:01:00,
2013-04-23 19:11:00,36.0,-1.0,-100.00,NW,310,6.0,10.0,19,-99.99,,,-99.99,,2013-04-24 01:11:00,
2013-04-23 19:21:00,35.0,-1.0,-100.00,North,0,6.0,7.0,21,-99.99,,,-99.99,,2013-04-24 01:21:00,
2013-04-23 19:31:00,34.0,0.0,-100.00,NNW,345,6.0,11.0,22,-99.99,,,-99.99,,2013-04-24 01:31:00,
2013-04-23 19:42:00,33.0,0.0,-100.00,North,0,6.0,10.0,23,-99.99,,,-99.99,,2013-04-24 01:42:00,
2013-04-23 19:52:00,33.0,0.0,-100.00,North,0,6.0,7.0,23,-99.99,,,-99.99,,2013-04-24 01:52:00,
2013-04-23 20:02:00,32.0,0.0,-100.00,North,0,6.0,9.0,24,-99.99,,,-99.99,,2013-04-24 02:02:00,
2013-04-23 20:11:00,31.0,-1.0,-100.00,North,5,7.0,9.0,24,-99.99,,,-99.99,,2013-04-24 02:11:00,
2013-04-23 20:33:00,30.0,0.0,-100.00,North,-999,-999.0,-999.0,26,-99.99,,,-99.99,,2013-04-24 02:33:00,
2013-04-23 20:43:00,30.0,0.0,-100.00,NE,45,6.0,-999.0,27,-99.99,,,-99.99,,2013-04-24 02:43:00,
2013-04-23 20:52:00,30.0,0.0,-100.00,NE,45,6.0,-999.0,27,-99.99,,,-99.99,,2013-04-24 02:52:00,
2013-04-23 21:43:00,28.0,0.0,-100.00,North,-999,-999.0,-999.0,29,-99.99,,,-99.99,,2013-04-24 03:43:00,
2013-04-23 21:53:00,28.0,0.0,-100.00,East,80,7.0,-999.0,29,-99.99,,,-99.99,,2013-04-24 03:53:00,
2013-04-23 21:58:00,28.0,0.0,-100.00,ENE,70,7.0,9.0,29,-99.99,,,-99.99,,2013-04-24 03:58:00,
2013-04-23 22:02:00,28.0,1.0,-100.00,North,-999,-999.0,-999.0,30,-99.99,,,-99.99,,2013-04-24 04:02:00,
2013-04-23 22:12:00,27.0,1.0,-100.00,East,80,7.0,9.0,31,-99.99,,,-99.99,,2013-04-24 04:12:00,
2013-04-23 22:22:00,27.0,2.0,-100.00,SE,130,6.0,7.0,34,-99.99,,,-99.99,,2013-04-24 04:22:00,
2013-04-23 22:33:00,26.0,3.0,-100.00,ESE,110,4.0,6.0,35,-99.99,,,-99.99,,2013-04-24 04:33:00,
2013-04-23 22:43:00,26.0,3.0,-100.00,SE,140,6.0,7.0,36,-99.99,,,-99.99,,2013-04-24 04:43:00,
2013-04-23 22:52:00,26.0,5.0,-100.00,SE,135,6.0,7.0,38,-99.99,,,-99.99,,2013-04-24 04:52:00,
2013-04-23 23:02:00,26.0,5.0,-100.00,SE,130,6.0,7.0,38,-99.99,,,-99.99,,2013-04-24 05:02:00,
2013-04-23 23:12:00,26.0,5.0,-100.00,ESE,105,6.0,-999.0,41,-99.99,,,-99.99,,2013-04-24 05:12:00,
2013-04-23 23:21:00,26.0,5.0,-100.00,East,100,8.0,9.0,39,-99.99,,,-99.99,,2013-04-24 05:21:00,
2013-04-23 23:32:00,26.0,5.0,-100.00,ESE,110,6.0,8.0,40,-99.99,,,-99.99,,2013-04-24 05:32:00,
2013-04-23 23:42:00,26.0,6.0,-100.00,SSE,155,6.0,6.0,41,-99.99,,,-99.99,,2013-04-24 05:42:00,
2013-04-23 23:51:00,26.0,7.0,-100.00,SE,125,7.0,9.0,44,-99.99,,,-99.99,,2013-04-24 05:51:00,